sensor_id;sensor_type;location;lat;lon;timestamp;temperature;humidity
3896;DHT22;1963;48.804;8.358;2022-12-18T00:01:29;-4.90;99.90
3896;DHT22;1963;48.804;8.358;2022-12-18T00:03:59;-5.00;99.90
3896;DHT22;1963;48.804;8.358;2022-12-18T00:06:28;-5.00;99.90
3896;DHT22;1963;48.804;8.358;2022-12-18T00:08:58;-5.00;99.90
3896;DHT22;1963;48.804;8.358;2022-12-18T00:11:28;-5.00;99.90
3896;DHT22;1963;48.804;8.358;2022-12-18T00:13:58;-5.00;99.90
3896;DHT22;1963;48.804;8.358;2022-12-18T00:16:28;-5.00;99.90
3896;DHT22;1963;48.804;8.358;2022-12-18T00:18:57;-5.10;99.90
3896;DHT22;1963;48.804;8.358;2022-12-18T00:21:27;-5.10;99.90
3896;DHT22;1963;48.804;8.358;2022-12-18T00:23:56;-5.10;99.90
3896;DHT22;1963;48.804;8.358;2022-12-18T00:26:26;-5.20;99.90
3896;DHT22;1963;48.804;8.358;2022-12-18T00:28:54;-5.10;99.90
3896;DHT22;1963;48.804;8.358;2022-12-18T00:31:24;-5.20;99.90
3896;DHT22;1963;48.804;8.358;2022-12-18T00:33:55;-5.30;99.90
3896;DHT22;1963;48.804;8.358;2022-12-18T00:36:25;-5.20;99.90
3896;DHT22;1963;48.804;8.358;2022-12-18T00:38:54;-5.30;99.90
3896;DHT22;1963;48.804;8.358;2022-12-18T00:41:23;-5.40;99.90
3896;DHT22;1963;48.804;8.358;2022-12-18T00:44:10;-5.40;99.90
3896;DHT22;1963;48.804;8.358;2022-12-18T00:46:39;-5.60;99.90
3896;DHT22;1963;48.804;8.358;2022-12-18T00:49:09;-5.50;99.90
3896;DHT22;1963;48.804;8.358;2022-12-18T00:51:37;-5.50;99.90
3896;DHT22;1963;48.804;8.358;2022-12-18T00:54:05;-5.50;99.90
3896;DHT22;1963;48.804;8.358;2022-12-18T00:56:35;-5.60;99.90
3896;DHT22;1963;48.804;8.358;2022-12-18T00:59:14;-5.60;99.90
3896;DHT22;1963;48.804;8.358;2022-12-18T01:01:43;-5.50;99.90
3896;DHT22;1963;48.804;8.358;2022-12-18T01:04:13;-5.60;99.90
3896;DHT22;1963;48.804;8.358;2022-12-18T01:06:41;-5.60;99.90
3896;DHT22;1963;48.804;8.358;2022-12-18T01:09:10;-5.70;99.90
3896;DHT22;1963;48.804;8.358;2022-12-18T01:11:38;-5.70;99.90
3896;DHT22;1963;48.804;8.358;2022-12-18T01:14:06;-5.60;99.90
3896;DHT22;1963;48.804;8.358;2022-12-18T01:16:34;-5.70;99.90
3896;DHT22;1963;48.804;8.358;2022-12-18T01:19:02;-5.80;99.90
3896;DHT22;1963;48.804;8.358;2022-12-18T01:21:32;-5.80;99.90
3896;DHT22;1963;48.804;8.358;2022-12-18T01:24:00;-5.80;99.90
3896;DHT22;1963;48.804;8.358;2022-12-18T01:26:28;-5.70;99.90
3896;DHT22;1963;48.804;8.358;2022-12-18T01:28:57;-5.70;99.90
3896;DHT22;1963;48.804;8.358;2022-12-18T01:31:26;-5.70;99.90
3896;DHT22;1963;48.804;8.358;2022-12-18T01:33:55;-5.80;99.90
3896;DHT22;1963;48.804;8.358;2022-12-18T01:36:25;-5.80;99.90
3896;DHT22;1963;48.804;8.358;2022-12-18T01:38:56;-5.80;99.90
3896;DHT22;1963;48.804;8.358;2022-12-18T01:41:26;-5.80;99.90
3896;DHT22;1963;48.804;8.358;2022-12-18T01:44:52;-5.70;99.90
3896;DHT22;1963;48.804;8.358;2022-12-18T01:47:24;-5.70;99.90
3896;DHT22;1963;48.804;8.358;2022-12-18T01:49:53;-5.80;99.90
3896;DHT22;1963;48.804;8.358;2022-12-18T01:52:24;-5.80;99.90
3896;DHT22;1963;48.804;8.358;2022-12-18T01:54:54;-5.90;99.90
3896;DHT22;1963;48.804;8.358;2022-12-18T01:57:24;-5.90;99.90
3896;DHT22;1963;48.804;8.358;2022-12-18T01:59:54;-6.00;99.90
3896;DHT22;1963;48.804;8.358;2022-12-18T02:02:23;-6.00;99.90
3896;DHT22;1963;48.804;8.358;2022-12-18T02:04:51;-6.00;99.90
3896;DHT22;1963;48.804;8.358;2022-12-18T02:07:27;-6.00;99.90
3896;DHT22;1963;48.804;8.358;2022-12-18T02:10:02;-6.00;99.90
3896;DHT22;1963;48.804;8.358;2022-12-18T02:12:38;-6.00;99.90
3896;DHT22;1963;48.804;8.358;2022-12-18T02:15:13;-6.00;99.90
3896;DHT22;1963;48.804;8.358;2022-12-18T02:17:47;-5.90;99.90
3896;DHT22;1963;48.804;8.358;2022-12-18T02:20:21;-5.90;99.90
3896;DHT22;1963;48.804;8.358;2022-12-18T02:23:04;-6.00;99.90
3896;DHT22;1963;48.804;8.358;2022-12-18T02:25:43;-6.00;99.90
3896;DHT22;1963;48.804;8.358;2022-12-18T02:28:17;-5.90;99.90
3896;DHT22;1963;48.804;8.358;2022-12-18T02:30:48;-5.90;99.90
3896;DHT22;1963;48.804;8.358;2022-12-18T02:33:19;-5.80;99.90
3896;DHT22;1963;48.804;8.358;2022-12-18T02:35:48;-5.80;99.90
3896;DHT22;1963;48.804;8.358;2022-12-18T02:38:18;-5.80;99.90
3896;DHT22;1963;48.804;8.358;2022-12-18T02:40:46;-5.90;99.90
3896;DHT22;1963;48.804;8.358;2022-12-18T02:43:16;-5.90;99.90
3896;DHT22;1963;48.804;8.358;2022-12-18T02:45:49;-5.90;99.90
3896;DHT22;1963;48.804;8.358;2022-12-18T02:48:19;-5.90;99.90
3896;DHT22;1963;48.804;8.358;2022-12-18T02:50:57;-5.90;99.90
3896;DHT22;1963;48.804;8.358;2022-12-18T02:53:33;-6.00;99.90
3896;DHT22;1963;48.804;8.358;2022-12-18T02:56:07;-5.90;99.90
3896;DHT22;1963;48.804;8.358;2022-12-18T02:58:44;-5.90;99.90
3896;DHT22;1963;48.804;8.358;2022-12-18T03:01:16;-5.90;99.90
3896;DHT22;1963;48.804;8.358;2022-12-18T03:03:54;-6.00;99.90
